SBPL/PNZ METAR and TAF weather

Enter ICAO airport designator
Station Type Date Time Source
SBPL METAR 2019/12/06 09:00 UTC NOAA

SBPL 060900Z 13003KT CAVOK 26/19 Q1014


Station Type Date Time Source
SBPL Decoded METAR 2019/12/06 09:00 UTC NOAA

Petrolina , Brazil (SBPL) 09-21S 040-33W
Dec 06, 2019 - 04:00 AM EST / 2019.12.06 0900 UTC
Wind: from the SE (130 degrees) at 3 MPH (3 KT):0
Visibility: greater than 7 mile(s):0
Temperature: 78 F (26 C)
Dew Point: 66 F (19 C)
Relative Humidity: 65%
Pressure (altimeter): 29.94 in. Hg (1014 hPa)
ob: SBPL 060900Z 13003KT CAVOK 26/19 Q1014
cycle: 9

Station Type Date Time Source
SBPL TAF 2019/12/06 06:15 UTC NOAA

TAF SBPL 060400Z 0606/0706 16008KT CAVOK TN24/0608Z TX37/0619Z
BECMG 0607/0609 12015KT 9999 SCT023
BECMG 0613/0615 12010KT FEW037
BECMG 0620/0622 16008KT
BECMG 0700/0702 CAVOK
RMK PFY

Example: see airport list